createdAt,value
2023-02-27T00:00:21.057Z,100170.38
2023-02-27T00:02:50.798Z,100175.88
2023-02-27T00:05:18.300Z,100179.22
2023-02-27T00:07:45.486Z,100183.75
2023-02-27T00:10:13.871Z,100183.41
2023-02-27T00:12:41.523Z,100195.47
2023-02-27T00:15:19.486Z,100196.84
2023-02-27T00:17:46.752Z,100199.44
2023-02-27T00:20:16.085Z,100206.13
2023-02-27T00:22:43.304Z,100213.91
2023-02-27T00:25:10.658Z,100214.59
2023-02-27T00:27:38.734Z,100216.34
2023-02-27T00:30:07.722Z,100211.56
2023-02-27T00:32:36.876Z,100209.69
2023-02-27T00:35:08.878Z,100219.00
2023-02-27T00:37:36.128Z,100212.28
2023-02-27T00:40:05.335Z,100218.09
2023-02-27T00:42:33.501Z,100216.59
2023-02-27T00:45:02.365Z,100209.22
2023-02-27T00:47:32.253Z,100224.50
2023-02-27T00:49:59.089Z,100213.78
2023-02-27T00:52:26.346Z,100226.47
2023-02-27T00:54:53.189Z,100218.69
2023-02-27T00:57:20.658Z,100221.53
2023-02-27T00:59:48.193Z,100228.03
2023-02-27T01:02:14.980Z,100224.38
2023-02-27T01:04:41.845Z,100226.00
2023-02-27T01:07:09.384Z,100232.38
2023-02-27T01:09:36.506Z,100230.41
2023-02-27T01:12:03.366Z,100238.28
2023-02-27T01:14:30.137Z,100232.16
2023-02-27T01:16:58.209Z,100233.19
2023-02-27T01:19:25.903Z,100227.38
2023-02-27T01:21:52.908Z,100231.09
2023-02-27T01:24:22.028Z,100229.31
2023-02-27T01:26:49.362Z,100233.59
2023-02-27T01:29:16.664Z,100233.88
2023-02-27T01:31:43.563Z,100251.16
2023-02-27T01:34:11.414Z,100246.06
2023-02-27T01:36:38.380Z,100250.06
2023-02-27T01:39:06.305Z,100247.50
2023-02-27T01:41:33.508Z,100241.53
2023-02-27T01:44:09.201Z,100258.13
2023-02-27T01:46:38.128Z,100252.16
2023-02-27T01:49:34.094Z,100250.91
2023-02-27T01:52:11.122Z,100249.75
2023-02-27T01:54:40.720Z,100257.81
2023-02-27T01:57:08.788Z,100260.66
2023-02-27T01:59:37.927Z,100265.94
2023-02-27T02:02:17.531Z,100264.13
2023-02-27T02:04:46.368Z,100252.81
2023-02-27T02:07:17.022Z,100262.78
2023-02-27T02:09:51.431Z,100260.25
2023-02-27T02:12:21.334Z,100262.91
2023-02-27T02:14:48.076Z,100256.38
2023-02-27T02:17:50.202Z,100260.78
2023-02-27T02:20:58.812Z,100259.84
2023-02-27T02:23:36.940Z,100261.03
2023-02-27T02:26:24.858Z,100263.44
2023-02-27T02:29:29.259Z,100259.84
2023-02-27T02:32:14.826Z,100265.13
2023-02-27T02:35:12.082Z,100256.28
2023-02-27T02:38:23.983Z,100258.72
2023-02-27T02:40:57.728Z,100255.59
2023-02-27T02:44:13.520Z,100262.56
2023-02-27T02:46:43.557Z,100253.59
2023-02-27T02:49:28.411Z,100260.16
2023-02-27T02:52:06.667Z,100270.22
2023-02-27T02:54:46.334Z,100264.06
2023-02-27T02:57:48.575Z,100268.00
2023-02-27T03:00:44.229Z,100264.75
2023-02-27T03:03:29.837Z,100271.72
2023-02-27T03:06:02.539Z,100276.72
2023-02-27T03:08:34.399Z,100276.38
2023-02-27T03:11:05.876Z,100289.59
2023-02-27T03:13:44.243Z,100283.91
2023-02-27T03:16:31.555Z,100284.94
2023-02-27T03:19:02.020Z,100287.16
2023-02-27T03:22:09.403Z,100300.16
2023-02-27T03:24:43.183Z,100293.19
2023-02-27T03:27:13.256Z,100285.97
2023-02-27T03:29:55.358Z,100290.63
2023-02-27T03:32:24.455Z,100302.34
2023-02-27T03:34:51.624Z,100294.81
2023-02-27T03:37:18.385Z,100297.47
2023-02-27T03:39:52.397Z,100304.78
2023-02-27T03:42:38.634Z,100312.44
2023-02-27T03:45:51.044Z,100314.75
2023-02-27T03:48:17.896Z,100324.16
2023-02-27T03:50:44.732Z,100325.56
2023-02-27T03:53:24.365Z,100330.19
2023-02-27T03:55:53.572Z,100324.06
2023-02-27T03:58:20.716Z,100331.78
2023-02-27T04:00:47.537Z,100326.63
2023-02-27T04:03:14.450Z,100332.28
2023-02-27T04:05:42.050Z,100334.38
2023-02-27T04:08:40.316Z,100331.81
2023-02-27T04:11:28.295Z,100331.47
2023-02-27T04:14:44.055Z,100335.06
2023-02-27T04:17:23.416Z,100333.09
2023-02-27T04:19:53.059Z,100341.56
2023-02-27T04:22:39.156Z,100343.53
2023-02-27T04:25:33.040Z,100330.59
2023-02-27T04:28:22.110Z,100339.06
2023-02-27T04:31:03.284Z,100337.84
2023-02-27T04:33:49.587Z,100343.88
2023-02-27T04:36:25.867Z,100346.22
2023-02-27T04:39:06.301Z,100339.56
2023-02-27T04:41:56.740Z,100345.72
2023-02-27T04:44:26.055Z,100352.56
2023-02-27T04:46:54.975Z,100351.19
2023-02-27T04:49:36.580Z,100357.25
2023-02-27T04:52:16.123Z,100345.41
2023-02-27T04:55:06.195Z,100345.59
2023-02-27T04:57:40.153Z,100349.75
2023-02-27T05:00:09.748Z,100351.03
2023-02-27T05:02:42.317Z,100349.88
2023-02-27T05:05:16.421Z,100352.09
2023-02-27T05:07:56.791Z,100346.28
2023-02-27T05:10:32.951Z,100354.44
2023-02-27T05:13:07.310Z,100351.75
2023-02-27T05:15:39.825Z,100341.78
2023-02-27T05:18:09.969Z,100361.44
2023-02-27T05:21:09.214Z,100364.53
2023-02-27T05:24:50.048Z,100364.94
2023-02-27T05:27:50.020Z,100365.84
2023-02-27T05:30:24.637Z,100365.84
2023-02-27T05:33:01.822Z,100371.78
2023-02-27T05:35:31.632Z,100371.78
2023-02-27T05:38:29.730Z,100376.06
2023-02-27T05:41:09.397Z,100365.84
2023-02-27T05:43:51.136Z,100375.97
2023-02-27T05:46:30.232Z,100384.88
2023-02-27T05:49:29.155Z,100383.53
2023-02-27T05:51:59.560Z,100382.81
2023-02-27T05:54:50.378Z,100390.94
2023-02-27T05:57:27.135Z,100398.94
2023-02-27T06:00:41.196Z,100407.09
2023-02-27T06:03:08.262Z,100409.28
2023-02-27T06:05:37.721Z,100409.16
2023-02-27T06:08:04.641Z,100412.44
2023-02-27T06:10:31.740Z,100413.91
2023-02-27T06:12:58.486Z,100432.47
2023-02-27T06:15:25.282Z,100428.56
2023-02-27T06:17:52.125Z,100444.13
2023-02-27T06:20:19.294Z,100430.88
2023-02-27T06:22:46.118Z,100448.31
2023-02-27T06:25:13.320Z,100447.13
2023-02-27T06:27:41.042Z,100448.31
2023-02-27T06:30:08.825Z,100446.91
2023-02-27T06:32:35.732Z,100455.50
2023-02-27T06:35:02.633Z,100447.72
2023-02-27T06:37:30.347Z,100457.59
2023-02-27T06:39:57.116Z,100453.59
2023-02-27T06:42:26.398Z,100459.66
2023-02-27T06:44:53.281Z,100463.81
2023-02-27T06:47:20.030Z,100470.59
2023-02-27T06:49:47.230Z,100473.53
2023-02-27T06:52:14.597Z,100484.00
2023-02-27T06:54:42.217Z,100479.44
2023-02-27T06:57:09.033Z,100488.94
2023-02-27T06:59:35.746Z,100489.97
2023-02-27T07:02:03.597Z,100487.31
2023-02-27T07:04:30.386Z,100487.06
2023-02-27T07:07:35.661Z,100480.78
2023-02-27T07:09:45.070Z,100485.47
2023-02-27T07:12:11.866Z,100486.63
2023-02-27T07:14:39.257Z,100489.38
2023-02-27T07:17:06.513Z,100497.22
2023-02-27T07:19:35.962Z,100490.00
2023-02-27T07:22:02.760Z,100493.19
2023-02-27T07:24:29.546Z,100497.94
2023-02-27T07:26:56.308Z,100502.66
2023-02-27T07:29:23.289Z,100500.66
2023-02-27T07:31:50.142Z,100501.31
2023-02-27T07:34:17.020Z,100505.66
2023-02-27T07:36:45.245Z,100504.13
2023-02-27T07:39:15.216Z,100511.56
2023-02-27T07:41:42.003Z,100510.28
2023-02-27T07:44:17.350Z,100510.34
2023-02-27T07:46:44.800Z,100507.66
2023-02-27T07:49:11.702Z,100512.41
2023-02-27T07:51:40.225Z,100514.97
2023-02-27T07:54:07.063Z,100509.91
2023-02-27T07:56:36.684Z,100519.56
2023-02-27T07:59:03.773Z,100514.38
2023-02-27T08:01:30.626Z,100521.16
2023-02-27T08:03:57.355Z,100525.13
2023-02-27T08:06:31.120Z,100514.88
2023-02-27T08:08:57.908Z,100534.56
2023-02-27T08:11:27.166Z,100531.13
2023-02-27T08:14:02.252Z,100540.16
2023-02-27T08:16:31.004Z,100538.41
2023-02-27T08:18:58.491Z,100536.38
2023-02-27T08:21:27.223Z,100538.13
2023-02-27T08:23:55.744Z,100547.19
2023-02-27T08:26:23.088Z,100561.84
2023-02-27T08:28:49.845Z,100557.91
2023-02-27T08:31:16.756Z,100556.53
2023-02-27T08:33:43.555Z,100559.53
2023-02-27T08:36:10.923Z,100553.31
2023-02-27T08:38:39.119Z,100559.69
2023-02-27T08:41:06.127Z,100558.91
2023-02-27T08:43:33.094Z,100565.41
2023-02-27T08:46:00.016Z,100570.97
2023-02-27T08:48:27.333Z,100576.25
2023-02-27T08:50:57.479Z,100572.34
2023-02-27T08:53:25.544Z,100579.16
2023-02-27T08:55:53.578Z,100571.91
2023-02-27T08:58:20.604Z,100572.38
2023-02-27T09:00:52.893Z,100562.06
2023-02-27T09:03:19.803Z,100573.25
2023-02-27T09:05:47.746Z,100570.19
2023-02-27T09:08:14.632Z,100572.22
2023-02-27T09:10:41.901Z,100572.34
2023-02-27T09:13:08.690Z,100580.16
2023-02-27T09:15:38.452Z,100574.44
2023-02-27T09:18:07.233Z,100573.63
2023-02-27T09:20:36.969Z,100581.34
2023-02-27T09:23:04.350Z,100578.69
2023-02-27T09:25:31.565Z,100580.94
2023-02-27T09:27:58.545Z,100580.66
2023-02-27T09:30:30.269Z,100592.63
2023-02-27T09:32:57.053Z,100584.97
2023-02-27T09:35:23.965Z,100587.94
2023-02-27T09:37:51.980Z,100592.25
2023-02-27T09:40:33.643Z,100597.72
2023-02-27T09:43:08.724Z,100591.47
2023-02-27T09:45:39.392Z,100595.56
2023-02-27T09:48:43.115Z,100598.13
2023-02-27T09:51:09.973Z,100601.00
2023-02-27T09:53:45.179Z,100605.25
2023-02-27T09:56:25.293Z,100607.97
2023-02-27T09:59:00.838Z,100607.16
2023-02-27T10:01:40.486Z,100615.41
2023-02-27T10:04:19.083Z,100611.97
2023-02-27T10:07:22.917Z,100605.50
2023-02-27T10:10:16.036Z,100620.94
2023-02-27T10:12:58.884Z,100612.03
2023-02-27T10:15:37.606Z,100617.69
2023-02-27T10:18:26.792Z,100613.06
2023-02-27T10:21:12.675Z,100618.53
2023-02-27T10:23:57.958Z,100615.69
2023-02-27T10:26:31.911Z,100609.53
2023-02-27T10:29:02.738Z,100620.22
2023-02-27T10:31:33.891Z,100624.44
2023-02-27T10:34:02.194Z,100624.75
2023-02-27T10:36:33.965Z,100619.44
2023-02-27T10:39:08.134Z,100619.66
2023-02-27T10:41:37.093Z,100617.59
2023-02-27T10:44:05.162Z,100614.19
2023-02-27T10:46:34.668Z,100617.97
2023-02-27T10:49:05.638Z,100612.41
2023-02-27T10:51:38.329Z,100608.41
2023-02-27T10:54:18.684Z,100610.00
2023-02-27T10:56:52.262Z,100610.78
2023-02-27T10:59:32.079Z,100609.53
2023-02-27T11:02:02.198Z,100608.22
2023-02-27T11:04:36.779Z,100611.97
2023-02-27T11:07:12.231Z,100602.81
2023-02-27T11:09:39.049Z,100609.13
2023-02-27T11:12:17.803Z,100600.41
2023-02-27T11:15:15.661Z,100601.22
2023-02-27T11:17:43.820Z,100600.53
2023-02-27T11:20:37.841Z,100597.97
2023-02-27T11:23:16.685Z,100598.03
2023-02-27T11:25:44.369Z,100606.28
2023-02-27T11:28:25.056Z,100595.31
2023-02-27T11:31:03.439Z,100604.22
2023-02-27T11:33:47.824Z,100604.00
2023-02-27T11:36:17.516Z,100603.94
2023-02-27T11:38:55.318Z,100602.91
2023-02-27T11:41:32.336Z,100597.78
2023-02-27T11:44:02.301Z,100594.34
2023-02-27T11:46:46.619Z,100587.84
2023-02-27T11:49:34.770Z,100592.81
2023-02-27T11:52:12.170Z,100590.53
2023-02-27T11:54:45.536Z,100591.13
2023-02-27T11:57:15.927Z,100585.38
2023-02-27T12:00:08.837Z,100580.81
2023-02-27T12:03:06.234Z,100586.47
2023-02-27T12:05:42.970Z,100584.88
2023-02-27T12:08:22.196Z,100578.63
2023-02-27T12:11:32.020Z,100587.50
2023-02-27T12:14:18.100Z,100584.28
2023-02-27T12:16:54.175Z,100585.41
2023-02-27T12:19:37.775Z,100584.63
2023-02-27T12:22:27.504Z,100587.84
2023-02-27T12:25:34.820Z,100591.00
2023-02-27T12:28:24.172Z,100588.97
2023-02-27T12:31:08.609Z,100589.28
2023-02-27T12:33:48.554Z,100587.75
2023-02-27T12:36:15.794Z,100590.91
2023-02-27T12:38:43.077Z,100587.56
2023-02-27T12:41:41.796Z,100589.53
2023-02-27T12:44:08.769Z,100592.00
2023-02-27T12:47:08.689Z,100588.97
2023-02-27T12:50:00.418Z,100586.06
2023-02-27T12:52:30.138Z,100594.66
2023-02-27T12:55:16.502Z,100582.16
2023-02-27T12:58:06.088Z,100576.56
2023-02-27T13:00:46.496Z,100579.47
2023-02-27T13:03:40.035Z,100588.09
2023-02-27T13:06:29.911Z,100585.31
2023-02-27T13:09:20.199Z,100581.63
2023-02-27T13:12:05.160Z,100595.56
2023-02-27T13:14:47.168Z,100582.75
2023-02-27T13:17:19.447Z,100585.00
2023-02-27T13:20:14.462Z,100587.44
2023-02-27T13:23:05.405Z,100588.41
2023-02-27T13:25:35.396Z,100594.25
2023-02-27T13:28:07.521Z,100602.25
2023-02-27T13:30:42.331Z,100606.56
2023-02-27T13:33:49.382Z,100598.75
2023-02-27T13:36:33.380Z,100601.88
2023-02-27T13:39:00.106Z,100607.38
2023-02-27T13:41:36.078Z,100603.47
2023-02-27T13:44:22.699Z,100602.44
2023-02-27T13:46:49.605Z,100592.28
2023-02-27T13:49:28.853Z,100601.66
2023-02-27T13:51:59.621Z,100600.25
2023-02-27T13:54:31.122Z,100602.50
2023-02-27T13:57:03.971Z,100600.03
2023-02-27T13:59:33.704Z,100600.78
2023-02-27T14:02:12.579Z,100595.81
2023-02-27T14:04:55.296Z,100595.97
2023-02-27T14:07:31.770Z,100604.97
2023-02-27T14:10:11.628Z,100605.16
2023-02-27T14:12:46.420Z,100603.09
2023-02-27T14:15:38.922Z,100604.50
2023-02-27T14:18:16.007Z,100604.28
2023-02-27T14:20:51.177Z,100599.44
2023-02-27T14:23:28.020Z,100605.78
2023-02-27T14:26:14.035Z,100607.22
2023-02-27T14:28:55.882Z,100611.13
2023-02-27T14:31:35.540Z,100612.16
2023-02-27T14:34:09.234Z,100618.63
2023-02-27T14:36:46.035Z,100609.28
2023-02-27T14:39:32.174Z,100608.31
2023-02-27T14:42:23.891Z,100616.84
2023-02-27T14:44:51.582Z,100612.22
2023-02-27T14:47:24.635Z,100613.56
2023-02-27T14:49:51.583Z,100612.72
2023-02-27T14:52:25.850Z,100618.63
2023-02-27T14:55:05.652Z,100610.75
2023-02-27T14:57:34.866Z,100624.94
2023-02-27T15:00:05.367Z,100621.41
2023-02-27T15:02:36.269Z,100632.38
2023-02-27T15:05:03.395Z,100632.13
2023-02-27T15:07:33.884Z,100626.94
2023-02-27T15:10:07.327Z,100628.97
2023-02-27T15:12:39.557Z,100640.97
2023-02-27T15:15:09.130Z,100640.75
2023-02-27T15:17:41.812Z,100635.66
2023-02-27T15:20:38.376Z,100636.59
2023-02-27T15:23:27.317Z,100637.25
2023-02-27T15:26:01.730Z,100638.84
2023-02-27T15:28:34.476Z,100642.00
2023-02-27T15:31:01.688Z,100640.38
2023-02-27T15:33:32.582Z,100644.66
2023-02-27T15:36:02.886Z,100640.63
2023-02-27T15:38:38.106Z,100640.78
2023-02-27T15:41:05.452Z,100653.22
2023-02-27T15:43:32.939Z,100647.16
2023-02-27T15:46:01.339Z,100659.91
2023-02-27T15:48:29.982Z,100651.50
2023-02-27T15:51:02.830Z,100651.25
2023-02-27T15:53:34.007Z,100650.47
2023-02-27T15:56:13.212Z,100662.19
2023-02-27T15:58:53.413Z,100666.69
2023-02-27T16:01:22.796Z,100662.63
2023-02-27T16:03:52.669Z,100671.94
2023-02-27T16:06:29.191Z,100676.66
2023-02-27T16:08:58.939Z,100681.94
2023-02-27T16:11:34.009Z,100679.38
2023-02-27T16:14:01.254Z,100686.53
2023-02-27T16:16:37.454Z,100690.44
2023-02-27T16:19:24.842Z,100693.69
2023-02-27T16:22:27.606Z,100705.34
2023-02-27T16:24:56.558Z,100697.34
2023-02-27T16:27:26.469Z,100703.84
2023-02-27T16:30:02.612Z,100703.56
2023-02-27T16:32:40.068Z,100706.66
2023-02-27T16:35:19.671Z,100708.16
2023-02-27T16:37:48.028Z,100721.56
2023-02-27T16:40:16.295Z,100719.41
2023-02-27T16:42:44.153Z,100719.13
2023-02-27T16:45:32.194Z,100715.25
2023-02-27T16:48:00.496Z,100715.03
2023-02-27T16:50:39.903Z,100724.72
2023-02-27T16:53:06.969Z,100720.91
2023-02-27T16:55:34.013Z,100732.19
2023-02-27T16:58:00.762Z,100740.44
2023-02-27T17:00:27.672Z,100739.72
2023-02-27T17:02:55.504Z,100742.56
2023-02-27T17:05:24.321Z,100745.34
2023-02-27T17:07:51.141Z,100756.41
2023-02-27T17:10:20.410Z,100759.91
2023-02-27T17:12:48.054Z,100760.16
2023-02-27T17:15:15.940Z,100767.41
2023-02-27T17:17:43.562Z,100772.03
2023-02-27T17:20:12.277Z,100769.91
2023-02-27T17:22:41.474Z,100773.44
2023-02-27T17:25:09.395Z,100774.50
2023-02-27T17:27:36.671Z,100782.66
2023-02-27T17:30:04.672Z,100775.38
2023-02-27T17:32:31.817Z,100772.41
2023-02-27T17:34:59.350Z,100786.59
2023-02-27T17:37:27.203Z,100788.09
2023-02-27T17:39:54.847Z,100796.16
2023-02-27T17:42:22.928Z,100797.53
2023-02-27T17:44:49.757Z,100801.97
2023-02-27T17:47:16.479Z,100804.56
2023-02-27T17:49:43.337Z,100816.69
2023-02-27T17:52:10.164Z,100808.91
2023-02-27T17:54:37.950Z,100818.44
2023-02-27T17:57:06.771Z,100816.53
2023-02-27T17:59:33.930Z,100819.78
2023-02-27T18:02:00.666Z,100815.38
2023-02-27T18:04:27.453Z,100818.97
2023-02-27T18:06:54.892Z,100826.53
2023-02-27T18:09:21.795Z,100824.63
2023-02-27T18:11:49.632Z,100827.06
2023-02-27T18:14:16.442Z,100834.06
2023-02-27T18:16:43.829Z,100834.38
2023-02-27T18:19:10.937Z,100836.56
2023-02-27T18:21:38.021Z,100836.00
2023-02-27T18:24:05.056Z,100840.94
2023-02-27T18:26:33.200Z,100845.28
2023-02-27T18:29:03.057Z,100839.06
2023-02-27T18:31:37.533Z,100850.44
2023-02-27T18:34:05.086Z,100847.53
2023-02-27T18:36:32.580Z,100849.28
2023-02-27T18:39:00.426Z,100845.03
2023-02-27T18:41:27.866Z,100851.25
2023-02-27T18:43:55.061Z,100846.38
2023-02-27T18:46:22.700Z,100861.38
2023-02-27T18:48:50.638Z,100852.72
2023-02-27T18:51:17.978Z,100857.44
2023-02-27T18:53:48.192Z,100864.59
2023-02-27T18:56:18.672Z,100874.66
2023-02-27T18:58:45.955Z,100874.78
2023-02-27T19:01:28.169Z,100875.47
2023-02-27T19:04:00.536Z,100885.16
2023-02-27T19:06:28.424Z,100878.88
2023-02-27T19:08:55.676Z,100887.03
2023-02-27T19:11:33.260Z,100887.84
2023-02-27T19:14:02.022Z,100884.47
2023-02-27T19:16:29.149Z,100884.88
2023-02-27T19:18:57.295Z,100881.44
2023-02-27T19:21:25.187Z,100887.75
2023-02-27T19:23:55.269Z,100891.56
2023-02-27T19:26:23.333Z,100892.50
2023-02-27T19:28:55.050Z,100906.34
2023-02-27T19:31:24.131Z,100894.59
2023-02-27T19:33:51.820Z,100895.53
2023-02-27T19:36:21.035Z,100889.00
2023-02-27T19:38:48.329Z,100893.53
2023-02-27T19:41:19.334Z,100895.53
2023-02-27T19:43:47.378Z,100895.06
2023-02-27T19:46:29.045Z,100890.81
2023-02-27T19:48:59.242Z,100897.25
2023-02-27T19:51:26.693Z,100901.00
2023-02-27T19:53:54.079Z,100889.88
2023-02-27T19:56:23.689Z,100898.72
2023-02-27T19:58:51.091Z,100903.63
2023-02-27T20:01:23.733Z,100903.78
2023-02-27T20:03:52.667Z,100905.78
2023-02-27T20:06:23.834Z,100917.19
2023-02-27T20:08:52.992Z,100921.84
2023-02-27T20:11:21.670Z,100919.06
2023-02-27T20:13:50.246Z,100921.16
2023-02-27T20:16:19.582Z,100919.88
2023-02-27T20:18:46.626Z,100919.06
2023-02-27T20:21:16.248Z,100923.28
2023-02-27T20:23:45.203Z,100926.66
2023-02-27T20:26:21.588Z,100929.69
2023-02-27T20:28:50.937Z,100933.75
2023-02-27T20:31:19.247Z,100929.22
2023-02-27T20:33:46.480Z,100935.03
2023-02-27T20:36:14.181Z,100939.34
2023-02-27T20:38:41.999Z,100938.19
2023-02-27T20:41:13.599Z,100940.25
2023-02-27T20:43:42.890Z,100945.38
2023-02-27T20:46:14.014Z,100937.25
2023-02-27T20:48:41.452Z,100942.50
2023-02-27T20:51:11.203Z,100947.25
2023-02-27T20:53:40.435Z,100946.56
2023-02-27T20:56:08.597Z,100952.38
2023-02-27T20:58:35.943Z,100950.72
2023-02-27T21:01:04.275Z,100953.41
2023-02-27T21:03:38.463Z,100954.66
2023-02-27T21:06:06.687Z,100944.41
2023-02-27T21:08:36.637Z,100943.34
2023-02-27T21:11:10.468Z,100946.88
2023-02-27T21:13:37.865Z,100949.19
2023-02-27T21:16:09.811Z,100942.22
2023-02-27T21:18:38.032Z,100946.63
2023-02-27T21:21:08.065Z,100948.72
2023-02-27T21:23:41.150Z,100942.22
2023-02-27T21:26:16.409Z,100949.06
2023-02-27T21:28:47.797Z,100951.94
2023-02-27T21:31:20.349Z,100959.97
2023-02-27T21:33:48.948Z,100958.06
2023-02-27T21:36:18.640Z,100966.44
2023-02-27T21:38:46.036Z,100965.63
2023-02-27T21:41:13.605Z,100967.72
2023-02-27T21:43:40.737Z,100967.09
2023-02-27T21:46:12.606Z,100968.97
2023-02-27T21:48:39.738Z,100970.03
2023-02-27T21:51:06.986Z,100970.13
2023-02-27T21:53:34.295Z,100972.56
2023-02-27T21:56:09.631Z,100969.44
2023-02-27T21:58:36.873Z,100972.88
2023-02-27T22:01:15.312Z,100970.56
2023-02-27T22:03:46.889Z,100964.72
2023-02-27T22:06:16.016Z,100967.69
2023-02-27T22:08:45.605Z,100958.22
2023-02-27T22:11:12.792Z,100960.16
2023-02-27T22:13:40.436Z,100964.56
2023-02-27T22:16:10.016Z,100957.81
2023-02-27T22:18:37.799Z,100972.13
2023-02-27T22:21:09.540Z,100966.81
2023-02-27T22:23:37.955Z,100971.53
2023-02-27T22:26:11.085Z,100975.94
2023-02-27T22:28:41.546Z,100971.66
2023-02-27T22:31:32.342Z,100973.81
2023-02-27T22:34:03.574Z,100969.09
2023-02-27T22:36:32.378Z,100973.06
2023-02-27T22:38:59.881Z,100975.84
2023-02-27T22:41:30.717Z,100970.50
2023-02-27T22:43:59.436Z,100961.88
2023-02-27T22:46:31.038Z,100965.16
2023-02-27T22:49:00.442Z,100969.44
2023-02-27T22:51:28.788Z,100965.25
2023-02-27T22:53:58.102Z,100966.81
2023-02-27T22:56:25.227Z,100962.88
2023-02-27T22:58:51.994Z,100967.56
2023-02-27T23:01:21.781Z,100971.88
2023-02-27T23:03:51.124Z,100969.03
2023-02-27T23:06:20.700Z,100973.50
2023-02-27T23:08:47.817Z,100970.44
2023-02-27T23:11:16.510Z,100975.25
2023-02-27T23:13:43.556Z,100973.66
2023-02-27T23:16:14.008Z,100974.47
2023-02-27T23:18:47.992Z,100976.44
2023-02-27T23:21:20.094Z,100973.19
2023-02-27T23:23:47.772Z,100979.50
2023-02-27T23:26:15.284Z,100977.50
2023-02-27T23:28:42.812Z,100979.84
2023-02-27T23:31:09.978Z,100986.03
2023-02-27T23:33:37.168Z,100986.03
2023-02-27T23:36:04.498Z,100986.25
2023-02-27T23:38:31.301Z,100976.69
2023-02-27T23:40:58.129Z,100979.94
2023-02-27T23:43:25.164Z,100978.53
2023-02-27T23:45:51.976Z,100978.31
2023-02-27T23:48:21.938Z,100979.13
2023-02-27T23:50:49.061Z,100982.50
2023-02-27T23:53:15.921Z,100976.69
2023-02-27T23:55:43.831Z,100977.88
2023-02-27T23:58:11.460Z,100975.69
